Flight Track Log - Related Links

Times and Time Zones

All times are in EDT time to prevent confusion due to time zone crossing. See the SWA1040 flight status page for this flight to view local times or setup timezone preferences in your user account.


Time Position Orientation Groundspeed Altitude Reporting Facility
EDT Latitude Longitude Course Direction KTS MPH feet Rate Location/Type
Sat 07:10:43 AM 41.7103 -71.4389 237° Southwest 134 154 600  Level Boston Center
Sat 07:11:13 AM 41.6981 -71.4642 237° Southwest 169 194 1,800 2,533 Climbing Boston Center
Sat 07:12:13 AM 41.6964 -71.5308 268° West 222 255 4,400 2,900 Climbing Boston Center
Sat 07:13:13 AM 41.7408 -71.5917 314° West 246 283 7,600 3,450 Climbing Boston Center
Sat 07:14:13 AM 41.8100 -71.6797 317° Northwest 269 310 11,300 3,400 Climbing Boston Center
Sat 07:15:13 AM 41.8233 -71.7856 280° West 296 341 14,400 3,150 Climbing Boston Center
Sat 07:16:13 AM 41.8386 -71.8967 280° West 331 381 17,600 2,850 Climbing Boston Center
Sat 07:17:13 AM 41.8453 -72.0417 274° West 347 399 20,100 2,600 Climbing Boston Center
Sat 07:18:13 AM 41.7978 -72.1672 243° Southwest 352 405 22,800 2,500 Climbing Boston Center
Sat 07:19:13 AM 41.7500 -72.2981 244° Southwest 369 425 25,100 2,300 Climbing Boston Center
Sat 07:20:13 AM 41.7044 -72.4289 245° Southwest 381 438 27,400 2,350 Climbing Boston Center
Sat 07:21:13 AM 41.6564 -72.5594 244° Southwest 392 451 29,800 2,050 Climbing Boston Center
Sat 07:22:13 AM 41.6081 -72.6956 245° Southwest 397 457 31,500 1,550 Climbing Boston Center
Sat 07:23:13 AM 41.5556 -72.8311 243° Southwest 402 463 32,900 1,250 Climbing Boston Center
Sat 07:24:13 AM 41.5383 -72.9808 261° West 409 471 34,000 1,250 Climbing Boston Center
Sat 07:25:13 AM 41.5228 -73.1472 263° West 415 478 35,400 1,393 Climbing Boston Center
Sat 07:27:01 AM 41.3931 -73.3875 234° Southwest 426 490 37,900 1,243 Climbing New York Center
Sat 07:28:02 AM 41.3192 -73.5197 233° Southwest 446 513 38,900 934 Climbing New York Center
Sat 07:29:03 AM 41.2431 -73.6492 232° Southwest 451 519 39,800 550 Climbing New York Center
Sat 07:30:02 AM 41.1650 -73.7808 232° Southwest 456 525 40,000 100 Climbing New York Center
Sat 07:31:03 AM 41.0886 -73.9094 232° Southwest 456 525 40,000  Level New York Center
Sat 07:32:02 AM 41.0142 -74.0408 233° Southwest 456 525 40,000  Level New York Center
Sat 07:33:02 AM 40.9358 -74.1661 230° Southwest 456 525 40,000  Level New York Center
Sat 07:34:02 AM 40.8617 -74.2775 229° Southwest 456 525 40,000  Level New York Center
Sat 07:35:03 AM 40.7869 -74.4053 232° Southwest 456 525 40,000  Level New York Center
Sat 07:36:01 AM 40.7122 -74.5300 232° Southwest 456 525 40,000  Level New York Center
Sat 07:37:01 AM 40.6353 -74.6569 231° Southwest 456 525 40,000  Level New York Center
Sat 07:38:01 AM 40.5561 -74.7781 229° Southwest 451 519 40,000  Level New York Center
Sat 07:39:02 AM 40.4769 -74.8936 228° Southwest 446 513 40,000  Level New York Center
Sat 07:40:03 AM 40.3936 -75.0114 227° Southwest 446 513 40,000  Level New York Center
Sat 07:41:01 AM 40.3125 -75.1261 227° Southwest 440 506 40,000  Level New York Center
Sat 07:42:01 AM 40.2311 -75.2406 227° Southwest 440 506 40,000  Level New York Center
Sat 07:43:02 AM 40.1492 -75.3603 228° Southwest 440 506 40,000  Level New York Center
Sat 07:44:03 AM 40.0678 -75.4742 227° Southwest 435 501 40,000  Level New York Center
Sat 07:45:03 AM 39.9817 -75.5903 226° Southwest 435 501 40,000  Level New York Center
Sat 07:46:01 AM 39.8997 -75.7064 227° Southwest 440 506 40,000  Level New York Center
Sat 07:47:02 AM 39.8236 -75.8308 231° Southwest 446 513 40,000  Level New York Center
Sat 07:49:29 AM 39.6186 -76.1519 230° Southwest 445 512 40,000  Level Washington Center
Sat 07:50:30 AM 39.5408 -76.2778 231° Southwest 445 512 40,000  Level Washington Center
Sat 07:51:30 AM 39.4567 -76.3978 228° Southwest 450 518 40,000  Level Washington Center
Sat 07:52:31 AM 39.3978 -76.4994 233° Southwest 450 518 40,000  Level Washington Center
Sat 07:53:31 AM 39.2964 -76.6483 229° Southwest 455 524 40,000  Level Washington Center
Sat 07:54:30 AM 39.2181 -76.7703 230° Southwest 455 524 40,000  Level Washington Center
Sat 07:55:31 AM 39.1378 -76.8947 230° Southwest 455 524 40,000  Level Washington Center
Sat 07:56:32 AM 39.0569 -77.0189 230° Southwest 455 524 40,000  Level Washington Center
Sat 07:57:32 AM 38.9619 -77.1267 221° Southwest 455 524 40,000  Level Washington Center
Sat 07:58:30 AM 38.8647 -77.2339 221° Southwest 455 524 40,000  Level Washington Center
Sat 07:59:30 AM 38.7672 -77.3383 220° Southwest 460 529 40,000  Level Washington Center
Sat 08:00:31 AM 38.6697 -77.4450 221° Southwest 460 529 40,000  Level Washington Center
Sat 08:01:31 AM 38.5744 -77.5489 220° Southwest 459 528 40,000  Level Washington Center
Sat 08:02:31 AM 38.4808 -77.6550 222° Southwest 459 528 40,000  Level Washington Center
Sat 08:03:32 AM 38.3853 -77.7583 220° Southwest 459 528 40,000  Level Washington Center
Sat 08:04:30 AM 38.2894 -77.8589 219° Southwest 459 528 40,000  Level Washington Center
Sat 08:05:31 AM 38.1936 -77.9617 220° Southwest 459 528 40,000  Level Washington Center
Sat 08:06:32 AM 38.1189 -78.0464 222° Southwest 459 528 40,000  Level Washington Center
Sat 08:07:30 AM 38.0061 -78.1639 219° Southwest 454 522 40,000  Level Washington Center
Sat 08:08:31 AM 37.9081 -78.2578 217° Southwest 449 517 40,000  Level Washington Center
Sat 08:09:30 AM 37.8078 -78.3542 217° Southwest 454 522 40,000  Level Washington Center
Sat 08:10:31 AM 37.7033 -78.4503 216° Southwest 459 528 40,000  Level Washington Center
Sat 08:11:32 AM 37.6158 -78.5333 217° Southwest 459 528 40,000  Level Washington Center
Sat 08:12:30 AM 37.5133 -78.6264 216° Southwest 459 528 40,000  Level Washington Center
Sat 08:13:30 AM 37.4150 -78.7192 217° Southwest 459 528 40,000  Level Washington Center
Sat 08:14:31 AM 37.3144 -78.8142 217° Southwest 459 528 40,000  Level Washington Center
Sat 08:15:31 AM 37.2139 -78.9067 216° Southwest 459 528 40,000  Level Washington Center
Sat 08:16:32 AM 37.1025 -79.0086 216° Southwest 454 522 40,000  Level Washington Center
Sat 08:17:30 AM 37.0039 -79.1003 217° Southwest 454 522 40,000  Level Washington Center
Sat 08:18:30 AM 36.9075 -79.1894 216° Southwest 449 517 40,000  Level Washington Center
Sat 08:19:32 AM 36.8067 -79.2808 216° Southwest 449 517 40,000  Level Washington Center
Sat 08:20:30 AM 36.7097 -79.3719 217° Southwest 449 517 40,000  Level Washington Center
Sat 08:21:31 AM 36.6197 -79.4531 216° Southwest 449 517 40,000  Level Washington Center
Sat 08:22:30 AM 36.5228 -79.5439 217° Southwest 449 517 40,000  Level Washington Center
Sat 08:23:32 AM 36.4092 -79.6431 215° Southwest 427 491 40,000  Level Atlanta Center
Sat 08:24:32 AM 36.3103 -79.7333 216° Southwest 439 505 40,000  Level Atlanta Center
Sat 08:25:32 AM 36.2131 -79.8208 216° Southwest 439 505 40,000  Level Atlanta Center
Sat 08:26:32 AM 36.1139 -79.9083 215° Southwest 439 505 40,000  Level Atlanta Center
Sat 08:27:32 AM 36.0267 -79.9822 214° Southwest 439 505 40,000  Level Atlanta Center
Sat 08:28:32 AM 35.9139 -80.0417 203° Southwest 426 490 40,000  Level Atlanta Center
Sat 08:29:32 AM 35.8053 -80.0981 203° Southwest 431 496 40,000  Level Atlanta Center
Sat 08:30:32 AM 35.6942 -80.1494 201° Southwest 431 496 40,000  Level Atlanta Center
Sat 08:31:32 AM 35.5750 -80.2114 203° Southwest 431 496 40,000  Level Atlanta Center
Sat 08:32:32 AM 35.4642 -80.2675 202° Southwest 426 490 40,000  Level Atlanta Center
Sat 08:33:32 AM 35.3572 -80.3208 202° Southwest 426 490 40,000  Level Atlanta Center
Sat 08:35:12 AM 35.1719 -80.4117 202° Southwest 421 484 40,000  Level Jacksonville Center
Sat 08:36:12 AM 35.0647 -80.4681 203° Southwest 426 490 40,000  Level Jacksonville Center
Sat 08:37:12 AM 34.9656 -80.5139 201° Southwest 426 490 40,000  Level Jacksonville Center
Sat 08:38:12 AM 34.8539 -80.5703 203° Southwest 426 490 40,000  Level Jacksonville Center
Sat 08:39:12 AM 34.7383 -80.6314 203° Southwest 421 484 40,000  Level Jacksonville Center
Sat 08:40:12 AM 34.6286 -80.6847 202° Southwest 421 484 40,000  Level Jacksonville Center
Sat 08:41:12 AM 34.5253 -80.7328 201° Southwest 439 505 40,000  Level Jacksonville Center
Sat 08:42:12 AM 34.4033 -80.7989 204° Southwest 427 491 40,000  Level Jacksonville Center
Sat 08:43:12 AM 34.2936 -80.8517 202° Southwest 427 491 40,000  Level Jacksonville Center
Sat 08:44:12 AM 34.1942 -80.8942 199° South 421 484 40,000  Level Jacksonville Center
Sat 08:45:12 AM 34.0822 -80.9519 203° Southwest 421 484 40,000  Level Jacksonville Center
Sat 08:46:12 AM 33.9725 -81.0044 202° Southwest 426 490 40,000  Level Jacksonville Center
Sat 08:47:12 AM 33.8606 -81.0519 199° South 431 496 40,000  Level Jacksonville Center
Sat 08:48:12 AM 33.7736 -81.0961 203° Southwest 431 496 40,000  Level Jacksonville Center
Sat 08:49:12 AM 33.6408 -81.1636 203° Southwest 436 502 40,000  Level Jacksonville Center
Sat 08:50:12 AM 33.5331 -81.2181 203° Southwest 431 496 40,000  Level Jacksonville Center
Sat 08:51:12 AM 33.4336 -81.2647 201° Southwest 431 496 40,000  Level Jacksonville Center
Sat 08:52:12 AM 33.3236 -81.3142 201° Southwest 431 496 40,000  Level Jacksonville Center
Sat 08:53:12 AM 33.2136 -81.3631 200° South 431 496 40,000  Level Jacksonville Center
Sat 08:54:12 AM 33.1036 -81.4147 201° Southwest 431 496 40,000  Level Jacksonville Center
Sat 08:55:12 AM 32.9936 -81.4636 200° South 431 496 40,000  Level Jacksonville Center
Sat 08:56:12 AM 32.8833 -81.5122 200° South 431 496 40,000  Level Jacksonville Center
Sat 08:57:12 AM 32.7733 -81.5608 200° South 431 496 40,000  Level Jacksonville Center
Sat 08:58:12 AM 32.6653 -81.6119 202° Southwest 426 490 40,000  Level Jacksonville Center
Sat 08:59:12 AM 32.5469 -81.6653 201° Southwest 426 490 40,000  Level Jacksonville Center
Sat 09:00:12 AM 32.4492 -81.7083 200° South 426 490 40,000  Level Jacksonville Center
Sat 09:01:12 AM 32.3264 -81.7642 201° Southwest 426 490 40,000  Level Jacksonville Center
Sat 09:02:12 AM 32.2142 -81.8122 200° South 431 496 40,000  Level Jacksonville Center
Sat 09:03:12 AM 32.1100 -81.8356 191° South 423 487 40,000  Level Jacksonville Center
Sat 09:04:12 AM 31.9808 -81.8639 191° South 429 494 40,000  Level Jacksonville Center
Sat 09:05:12 AM 31.8764 -81.8822 188° South 430 495 40,000  Level Jacksonville Center
Sat 09:06:12 AM 31.7494 -81.9106 191° South 430 495 40,000  Level Jacksonville Center
Sat 09:07:12 AM 31.6306 -81.9361 190° South 430 495 40,000  Level Jacksonville Center
Sat 09:08:12 AM 31.5264 -81.9567 190° South 430 495 40,000  Level Jacksonville Center
Sat 09:09:12 AM 31.3950 -81.9847 190° South 430 495 40,000  Level Jacksonville Center
Sat 09:10:12 AM 31.2783 -82.0125 192° South 430 495 40,000  Level Jacksonville Center
Sat 09:11:12 AM 31.1594 -82.0356 189° South 430 495 40,000  Level Jacksonville Center
Sat 09:12:12 AM 31.0383 -82.0633 191° South 430 495 40,000 -400 Level Jacksonville Center
Sat 09:13:12 AM 30.9194 -82.0861 189° South 435 501 39,200 -900 Descending Jacksonville Center
Sat 09:14:12 AM 30.8008 -82.1114 190° South 435 501 38,200 -600 Descending Jacksonville Center
Sat 09:15:12 AM 30.6861 -82.1364 191° South 435 501 38,000 -100 Descending Jacksonville Center
Sat 09:16:12 AM 30.5650 -82.1617 190° South 430 495 38,000  Level Jacksonville Center
Sat 09:17:12 AM 30.4628 -82.1767 187° South 430 495 38,000  Level Jacksonville Center
Sat 09:18:12 AM 30.3461 -82.2017 190° South 430 495 38,000 -500 Level Jacksonville Center
Sat 09:19:12 AM 30.2272 -82.2242 189° South 430 495 37,000 -1,700 Descending Jacksonville Center
Sat 09:20:12 AM 30.1061 -82.2514 191° South 430 495 34,600 -2,400 Descending Jacksonville Center
Sat 09:21:12 AM 29.9872 -82.2786 191° South 430 495 32,200 -1,300 Descending Jacksonville Center
Sat 09:22:12 AM 29.8686 -82.3033 190° South 435 501 32,000 -1,000 Descending Jacksonville Center
Sat 09:23:12 AM 29.7494 -82.3233 188° South 441 507 30,200 -2,100 Descending Jacksonville Center
Sat 09:24:12 AM 29.6306 -82.3503 191° South 441 507 27,800 -1,850 Descending Jacksonville Center
Sat 09:25:12 AM 29.5158 -82.3508 180° South 435 501 26,500 -1,150 Descending Jacksonville Center
Sat 09:26:12 AM 29.4011 -82.3347 173° South 420 483 25,500 -1,550 Descending Jacksonville Center
Sat 09:27:12 AM 29.2883 -82.3236 175° South 420 483 23,400 -2,100 Descending Jacksonville Center
Sat 09:28:12 AM 29.1839 -82.3097 173° South 404 465 21,300 -2,150 Descending Jacksonville Center
Sat 09:29:12 AM 29.0794 -82.2986 175° South 393 452 19,100 -2,050 Descending Jacksonville Center
Sat 09:30:12 AM 28.9792 -82.2897 176° South 376 433 17,200 -2,000 Descending Jacksonville Center
Sat 09:31:12 AM 28.8789 -82.2761 173° South 370 426 15,100 -1,660 Descending Jacksonville Center
Sat 09:32:51 AM 28.7167 -82.2500 172° South 330 380 12,800 -1,321 Descending Tampa TRACON
Sat 09:33:51 AM 28.6333 -82.2500 180° South 300 345 11,600 -1,350 Descending Tampa TRACON
Sat 09:34:51 AM 28.5500 -82.2500 180° South 294 338 10,100 -1,550 Descending Tampa TRACON
Sat 09:35:51 AM 28.4667 -82.2500 180° South 287 330 8,500 -1,488 Descending Tampa TRACON
Sat 09:36:52 AM 28.4000 -82.2500 180° South 282 325 7,100 -744 Descending Tampa TRACON
Sat 09:37:52 AM 28.3333 -82.2833 204° Southwest 273 314 7,000 -700 Descending Tampa TRACON
Sat 09:38:52 AM 28.2833 -82.3500 230° Southwest 272 313 5,700 -1,450 Descending Tampa TRACON
Sat 09:39:52 AM 28.2333 -82.4167 230° Southwest 270 311 4,100 -1,300 Descending Tampa TRACON
Sat 09:40:52 AM 28.1833 -82.4667 221° Southwest 247 284 3,100 -800 Descending Tampa TRACON
Sat 09:41:52 AM 28.1167 -82.5000 204° Southwest 212 244 2,500 -650 Descending Tampa TRACON
Sat 09:42:52 AM 28.0833 -82.5167 204° Southwest 167 192 1,800 -700 Descending Tampa TRACON

Login

Don't have an account? Register now (free) for customized features, flight alerts, and more!